sensor_id;sensor_type;location;lat;lon;timestamp;pressure;altitude;pressure_sealevel;temperature;humidity
73870;BME280;64924;42.140;24.762;2022-12-10T00:02:08;99236.28;;;10.40;65.00
73870;BME280;64924;42.140;24.762;2022-12-10T00:04:34;99213.91;;;10.37;65.24
73870;BME280;64924;42.140;24.762;2022-12-10T00:06:59;99220.94;;;10.19;65.71
73870;BME280;64924;42.140;24.762;2022-12-10T00:09:25;99211.09;;;10.18;65.75
73870;BME280;64924;42.140;24.762;2022-12-10T00:11:50;99203.03;;;10.31;65.58
73870;BME280;64924;42.140;24.762;2022-12-10T00:14:16;99163.91;;;10.19;65.09
73870;BME280;64924;42.140;24.762;2022-12-10T00:16:42;99178.16;;;10.21;65.42
73870;BME280;64924;42.140;24.762;2022-12-10T00:19:08;99178.38;;;10.19;65.29
73870;BME280;64924;42.140;24.762;2022-12-10T00:21:35;99209.09;;;10.46;65.33
73870;BME280;64924;42.140;24.762;2022-12-10T00:24:02;99204.94;;;10.37;65.42
73870;BME280;64924;42.140;24.762;2022-12-10T00:26:30;99203.47;;;10.34;65.47
73870;BME280;64924;42.140;24.762;2022-12-10T00:28:57;99212.03;;;10.38;65.44
73870;BME280;64924;42.140;24.762;2022-12-10T00:31:29;99217.66;;;10.43;65.32
73870;BME280;64924;42.140;24.762;2022-12-10T00:33:59;99206.81;;;10.50;65.20
73870;BME280;64924;42.140;24.762;2022-12-10T00:36:28;99201.78;;;10.47;65.06
73870;BME280;64924;42.140;24.762;2022-12-10T00:38:54;99201.56;;;10.28;65.37
73870;BME280;64924;42.140;24.762;2022-12-10T00:41:20;99218.72;;;10.35;65.54
73870;BME280;64924;42.140;24.762;2022-12-10T00:43:46;99229.16;;;10.38;65.51
73870;BME280;64924;42.140;24.762;2022-12-10T00:46:13;99216.63;;;10.44;65.69
73870;BME280;64924;42.140;24.762;2022-12-10T00:48:39;99207.81;;;10.22;66.04
73870;BME280;64924;42.140;24.762;2022-12-10T00:53:33;99190.06;;;10.20;66.06
73870;BME280;64924;42.140;24.762;2022-12-10T00:55:59;99192.94;;;10.18;65.71
73870;BME280;64924;42.140;24.762;2022-12-10T00:58:30;99214.31;;;10.41;65.79
73870;BME280;64924;42.140;24.762;2022-12-10T01:03:37;99209.69;;;10.22;66.20
73870;BME280;64924;42.140;24.762;2022-12-10T01:06:13;99199.31;;;10.38;65.95
73870;BME280;64924;42.140;24.762;2022-12-10T01:08:39;99177.25;;;10.00;66.58
73870;BME280;64924;42.140;24.762;2022-12-10T01:11:06;99217.38;;;10.18;66.56
73870;BME280;64924;42.140;24.762;2022-12-10T01:13:32;99189.38;;;10.11;66.48
73870;BME280;64924;42.140;24.762;2022-12-10T01:16:00;99194.25;;;10.22;66.78
73870;BME280;64924;42.140;24.762;2022-12-10T01:18:26;99184.00;;;10.24;66.38
73870;BME280;64924;42.140;24.762;2022-12-10T01:20:52;99191.34;;;10.37;66.06
73870;BME280;64924;42.140;24.762;2022-12-10T01:23:17;99172.34;;;10.37;66.02
73870;BME280;64924;42.140;24.762;2022-12-10T01:25:43;99182.56;;;10.42;66.21
73870;BME280;64924;42.140;24.762;2022-12-10T01:28:08;99128.41;;;10.00;65.69
73870;BME280;64924;42.140;24.762;2022-12-10T01:30:33;99172.97;;;10.39;66.03
73870;BME280;64924;42.140;24.762;2022-12-10T01:32:59;99157.09;;;10.36;66.01
73870;BME280;64924;42.140;24.762;2022-12-10T01:35:24;99169.00;;;10.42;66.25
73870;BME280;64924;42.140;24.762;2022-12-10T01:37:50;99154.16;;;10.31;66.08
73870;BME280;64924;42.140;24.762;2022-12-10T01:40:15;99164.84;;;10.39;65.93
73870;BME280;64924;42.140;24.762;2022-12-10T01:42:41;99149.16;;;10.28;66.23
73870;BME280;64924;42.140;24.762;2022-12-10T01:45:10;99151.66;;;10.29;66.30
73870;BME280;64924;42.140;24.762;2022-12-10T01:47:36;99158.97;;;10.35;66.53
73870;BME280;64924;42.140;24.762;2022-12-10T01:50:03;99158.34;;;10.33;66.37
73870;BME280;64924;42.140;24.762;2022-12-10T01:52:29;99148.53;;;10.32;66.29
73870;BME280;64924;42.140;24.762;2022-12-10T01:54:54;99153.34;;;10.37;66.34
73870;BME280;64924;42.140;24.762;2022-12-10T01:57:25;99147.91;;;10.37;66.17
73870;BME280;64924;42.140;24.762;2022-12-10T01:59:54;99121.38;;;10.26;66.36
73870;BME280;64924;42.140;24.762;2022-12-10T02:02:31;99142.28;;;10.38;66.33
73870;BME280;64924;42.140;24.762;2022-12-10T02:07:57;99145.38;;;10.42;66.12
73870;BME280;64924;42.140;24.762;2022-12-10T02:10:55;99149.38;;;10.40;66.15
73870;BME280;64924;42.140;24.762;2022-12-10T02:13:32;99140.78;;;10.29;66.58
73870;BME280;64924;42.140;24.762;2022-12-10T02:16:06;99134.75;;;10.27;66.71
73870;BME280;64924;42.140;24.762;2022-12-10T02:18:41;99127.78;;;10.18;66.56
73870;BME280;64924;42.140;24.762;2022-12-10T02:21:25;99123.59;;;10.16;66.58
73870;BME280;64924;42.140;24.762;2022-12-10T02:23:58;99118.59;;;10.13;66.68
73870;BME280;64924;42.140;24.762;2022-12-10T02:29:49;99137.59;;;10.13;66.60
73870;BME280;64924;42.140;24.762;2022-12-10T02:32:26;99125.47;;;10.09;66.91
73870;BME280;64924;42.140;24.762;2022-12-10T02:34:57;99136.97;;;10.11;67.09
73870;BME280;64924;42.140;24.762;2022-12-10T02:37:30;99157.84;;;10.10;67.02
73870;BME280;64924;42.140;24.762;2022-12-10T02:40:02;99135.69;;;10.06;66.92
73870;BME280;64924;42.140;24.762;2022-12-10T02:42:32;99093.50;;;9.84;66.77
73870;BME280;64924;42.140;24.762;2022-12-10T02:44:59;99132.97;;;10.06;66.35
73870;BME280;64924;42.140;24.762;2022-12-10T02:47:26;99145.09;;;10.11;66.42
73870;BME280;64924;42.140;24.762;2022-12-10T02:49:53;99157.06;;;10.23;66.30
73870;BME280;64924;42.140;24.762;2022-12-10T02:52:22;99093.94;;;9.94;66.36
73870;BME280;64924;42.140;24.762;2022-12-10T02:54:49;99136.13;;;10.17;66.02
73870;BME280;64924;42.140;24.762;2022-12-10T03:00:04;99124.94;;;10.33;65.73
73870;BME280;64924;42.140;24.762;2022-12-10T03:05:26;99084.56;;;10.10;65.45
73870;BME280;64924;42.140;24.762;2022-12-10T03:08:13;99130.38;;;10.33;65.66
73870;BME280;64924;42.140;24.762;2022-12-10T03:11:00;99086.22;;;10.04;65.41
73870;BME280;64924;42.140;24.762;2022-12-10T03:13:32;99122.81;;;10.22;65.72
73870;BME280;64924;42.140;24.762;2022-12-10T03:16:02;99128.00;;;10.17;65.77
73870;BME280;64924;42.140;24.762;2022-12-10T03:18:31;99127.97;;;10.10;66.12
73870;BME280;64924;42.140;24.762;2022-12-10T03:21:05;99119.47;;;10.20;66.12
73870;BME280;64924;42.140;24.762;2022-12-10T03:23:33;99110.03;;;10.16;66.15
73870;BME280;64924;42.140;24.762;2022-12-10T03:26:00;99096.88;;;10.13;65.87
73870;BME280;64924;42.140;24.762;2022-12-10T03:28:26;99073.06;;;9.95;66.08
73870;BME280;64924;42.140;24.762;2022-12-10T03:30:53;99104.81;;;10.14;65.89
73870;BME280;64924;42.140;24.762;2022-12-10T03:33:19;99121.16;;;10.21;65.97
73870;BME280;64924;42.140;24.762;2022-12-10T03:35:45;99101.47;;;10.19;66.20
73870;BME280;64924;42.140;24.762;2022-12-10T03:38:12;99075.56;;;10.10;66.19
73870;BME280;64924;42.140;24.762;2022-12-10T03:40:38;99105.91;;;10.26;65.94
73870;BME280;64924;42.140;24.762;2022-12-10T03:43:03;99083.53;;;10.18;65.99
73870;BME280;64924;42.140;24.762;2022-12-10T03:45:29;99061.81;;;9.98;66.15
73870;BME280;64924;42.140;24.762;2022-12-10T03:47:54;99097.34;;;10.23;65.79
73870;BME280;64924;42.140;24.762;2022-12-10T03:50:20;99082.53;;;10.25;66.19
73870;BME280;64924;42.140;24.762;2022-12-10T03:52:45;99079.19;;;10.23;66.21
73870;BME280;64924;42.140;24.762;2022-12-10T03:55:11;99035.94;;;10.02;65.84
73870;BME280;64924;42.140;24.762;2022-12-10T03:57:36;99084.41;;;10.31;65.93
73870;BME280;64924;42.140;24.762;2022-12-10T04:00:05;99080.66;;;10.39;65.89
73870;BME280;64924;42.140;24.762;2022-12-10T04:02:31;99080.84;;;10.31;65.72
73870;BME280;64924;42.140;24.762;2022-12-10T04:04:57;99088.16;;;10.24;65.92
73870;BME280;64924;42.140;24.762;2022-12-10T04:07:22;99077.72;;;10.27;65.68
73870;BME280;64924;42.140;24.762;2022-12-10T04:09:48;99099.44;;;10.27;65.92
73870;BME280;64924;42.140;24.762;2022-12-10T04:12:13;99059.28;;;9.96;66.17
73870;BME280;64924;42.140;24.762;2022-12-10T04:14:39;99102.97;;;10.21;66.29
73870;BME280;64924;42.140;24.762;2022-12-10T04:17:22;99081.00;;;10.10;66.19
73870;BME280;64924;42.140;24.762;2022-12-10T04:19:48;99114.69;;;10.22;66.04
73870;BME280;64924;42.140;24.762;2022-12-10T04:22:13;99064.72;;;9.90;66.61
73870;BME280;64924;42.140;24.762;2022-12-10T04:24:57;99083.28;;;10.06;66.74
73870;BME280;64924;42.140;24.762;2022-12-10T04:27:41;99075.56;;;9.96;66.88
73870;BME280;64924;42.140;24.762;2022-12-10T04:30:09;99081.84;;;9.97;67.07
73870;BME280;64924;42.140;24.762;2022-12-10T04:32:35;99103.97;;;10.00;66.89
73870;BME280;64924;42.140;24.762;2022-12-10T04:35:01;99094.78;;;10.01;67.20
73870;BME280;64924;42.140;24.762;2022-12-10T04:37:27;99087.03;;;9.85;67.53
73870;BME280;64924;42.140;24.762;2022-12-10T04:39:52;99089.75;;;9.92;67.42
73870;BME280;64924;42.140;24.762;2022-12-10T04:42:19;99091.63;;;9.91;67.68
73870;BME280;64924;42.140;24.762;2022-12-10T04:44:44;99101.66;;;9.97;67.62
73870;BME280;64924;42.140;24.762;2022-12-10T04:47:10;99101.88;;;10.02;67.10
73870;BME280;64924;42.140;24.762;2022-12-10T04:49:36;99089.78;;;9.98;67.06
73870;BME280;64924;42.140;24.762;2022-12-10T04:52:02;99104.38;;;10.04;67.09
73870;BME280;64924;42.140;24.762;2022-12-10T04:54:28;99058.19;;;9.78;67.17
73870;BME280;64924;42.140;24.762;2022-12-10T04:56:54;99097.91;;;10.05;67.25
73870;BME280;64924;42.140;24.762;2022-12-10T04:59:20;99092.09;;;10.01;67.51
73870;BME280;64924;42.140;24.762;2022-12-10T05:01:46;99081.81;;;10.03;67.09
73870;BME280;64924;42.140;24.762;2022-12-10T05:04:14;99060.31;;;9.89;67.67
73870;BME280;64924;42.140;24.762;2022-12-10T05:06:40;99064.31;;;9.99;67.26
73870;BME280;64924;42.140;24.762;2022-12-10T05:09:06;99031.50;;;9.81;67.32
73870;BME280;64924;42.140;24.762;2022-12-10T05:11:33;99045.69;;;9.83;67.44
73870;BME280;64924;42.140;24.762;2022-12-10T05:13:59;99069.53;;;10.01;67.32
73870;BME280;64924;42.140;24.762;2022-12-10T05:16:27;99093.75;;;10.16;67.12
73870;BME280;64924;42.140;24.762;2022-12-10T05:18:54;99081.00;;;10.10;66.87
73870;BME280;64924;42.140;24.762;2022-12-10T05:21:20;99077.66;;;10.07;66.92
73870;BME280;64924;42.140;24.762;2022-12-10T05:23:48;99100.47;;;10.20;66.94
73870;BME280;64924;42.140;24.762;2022-12-10T05:26:22;99087.28;;;10.17;66.68
73870;BME280;64924;42.140;24.762;2022-12-10T05:28:53;99041.75;;;9.92;66.70
73870;BME280;64924;42.140;24.762;2022-12-10T05:31:24;99081.22;;;10.15;66.95
73870;BME280;64924;42.140;24.762;2022-12-10T05:33:51;99091.50;;;10.19;66.94
73870;BME280;64924;42.140;24.762;2022-12-10T05:36:20;99084.41;;;10.25;66.88
73870;BME280;64924;42.140;24.762;2022-12-10T05:38:46;99091.66;;;10.18;66.88
73870;BME280;64924;42.140;24.762;2022-12-10T05:41:17;99091.09;;;10.29;66.66
73870;BME280;64924;42.140;24.762;2022-12-10T05:43:44;99080.63;;;10.19;66.83
73870;BME280;64924;42.140;24.762;2022-12-10T05:46:15;99079.34;;;10.02;67.56
73870;BME280;64924;42.140;24.762;2022-12-10T05:48:41;99082.06;;;10.02;67.61
73870;BME280;64924;42.140;24.762;2022-12-10T05:51:12;99081.00;;;10.03;67.97
73870;BME280;64924;42.140;24.762;2022-12-10T05:53:38;99073.09;;;10.01;67.41
73870;BME280;64924;42.140;24.762;2022-12-10T05:56:10;99079.75;;;10.12;67.14
73870;BME280;64924;42.140;24.762;2022-12-10T05:58:37;99027.53;;;9.77;67.44
73870;BME280;64924;42.140;24.762;2022-12-10T06:01:13;99071.81;;;10.17;67.07
73870;BME280;64924;42.140;24.762;2022-12-10T06:03:41;99038.41;;;9.97;67.25
73870;BME280;64924;42.140;24.762;2022-12-10T06:06:07;99053.47;;;9.99;67.13
73870;BME280;64924;42.140;24.762;2022-12-10T06:08:34;99078.56;;;10.28;66.68
73870;BME280;64924;42.140;24.762;2022-12-10T06:11:04;99057.41;;;10.10;67.03
73870;BME280;64924;42.140;24.762;2022-12-10T06:13:30;99035.50;;;9.92;67.07
73870;BME280;64924;42.140;24.762;2022-12-10T06:15:55;98999.56;;;9.83;67.21
73870;BME280;64924;42.140;24.762;2022-12-10T06:18:21;99060.75;;;10.19;67.02
73870;BME280;64924;42.140;24.762;2022-12-10T06:20:46;99054.28;;;10.06;67.23
73870;BME280;64924;42.140;24.762;2022-12-10T06:23:12;99064.72;;;10.16;67.36
73870;BME280;64924;42.140;24.762;2022-12-10T06:25:39;99011.50;;;9.95;67.13
73870;BME280;64924;42.140;24.762;2022-12-10T06:28:05;99049.53;;;10.22;66.73
73870;BME280;64924;42.140;24.762;2022-12-10T06:30:31;99066.66;;;10.29;66.51
73870;BME280;64924;42.140;24.762;2022-12-10T06:32:56;99069.78;;;10.46;66.50
73870;BME280;64924;42.140;24.762;2022-12-10T06:35:22;99066.22;;;10.52;65.82
73870;BME280;64924;42.140;24.762;2022-12-10T06:37:48;99068.72;;;10.60;65.68
73870;BME280;64924;42.140;24.762;2022-12-10T06:40:14;99077.50;;;10.62;65.62
73870;BME280;64924;42.140;24.762;2022-12-10T06:42:39;99059.13;;;10.44;65.88
73870;BME280;64924;42.140;24.762;2022-12-10T06:45:05;99076.03;;;10.59;65.85
73870;BME280;64924;42.140;24.762;2022-12-10T06:47:31;99083.78;;;10.62;66.09
73870;BME280;64924;42.140;24.762;2022-12-10T06:49:56;99078.53;;;10.67;66.18
73870;BME280;64924;42.140;24.762;2022-12-10T06:52:22;99076.88;;;10.60;66.08
73870;BME280;64924;42.140;24.762;2022-12-10T06:54:47;99033.66;;;10.38;66.27
73870;BME280;64924;42.140;24.762;2022-12-10T06:57:13;99092.53;;;10.71;65.72
73870;BME280;64924;42.140;24.762;2022-12-10T06:59:38;99086.91;;;10.73;65.41
73870;BME280;64924;42.140;24.762;2022-12-10T07:02:04;99066.22;;;10.71;65.58
73870;BME280;64924;42.140;24.762;2022-12-10T07:04:29;99058.91;;;10.65;65.54
73870;BME280;64924;42.140;24.762;2022-12-10T07:06:55;99093.97;;;10.87;65.19
73870;BME280;64924;42.140;24.762;2022-12-10T07:09:20;99070.75;;;10.84;64.97
73870;BME280;64924;42.140;24.762;2022-12-10T07:11:46;99088.72;;;10.92;65.55
73870;BME280;64924;42.140;24.762;2022-12-10T07:14:14;99102.75;;;10.89;65.52
73870;BME280;64924;42.140;24.762;2022-12-10T07:16:41;99081.44;;;10.86;65.24
73870;BME280;64924;42.140;24.762;2022-12-10T07:19:09;99070.53;;;10.92;65.14
73870;BME280;64924;42.140;24.762;2022-12-10T07:21:35;99073.03;;;11.00;64.91
73870;BME280;64924;42.140;24.762;2022-12-10T07:24:06;99072.41;;;10.98;65.08
73870;BME280;64924;42.140;24.762;2022-12-10T07:26:34;99069.28;;;11.01;65.44
73870;BME280;64924;42.140;24.762;2022-12-10T07:29:02;99058.41;;;11.01;65.00
73870;BME280;64924;42.140;24.762;2022-12-10T07:31:27;99065.91;;;11.06;65.25
73870;BME280;64924;42.140;24.762;2022-12-10T07:33:54;99025.41;;;10.78;65.60
73870;BME280;64924;42.140;24.762;2022-12-10T07:36:21;99055.28;;;10.98;65.32
73870;BME280;64924;42.140;24.762;2022-12-10T07:38:48;99059.88;;;10.91;65.32
73870;BME280;64924;42.140;24.762;2022-12-10T07:41:14;99051.78;;;10.64;65.56
73870;BME280;64924;42.140;24.762;2022-12-10T07:43:41;99060.97;;;10.77;65.54
73870;BME280;64924;42.140;24.762;2022-12-10T07:46:22;99064.91;;;10.94;65.20
73870;BME280;64924;42.140;24.762;2022-12-10T07:48:48;99051.13;;;10.82;65.28
73870;BME280;64924;42.140;24.762;2022-12-10T07:51:15;99049.44;;;10.94;65.14
73870;BME280;64924;42.140;24.762;2022-12-10T07:53:41;99044.63;;;10.90;64.77
73870;BME280;64924;42.140;24.762;2022-12-10T07:56:07;99053.38;;;11.05;64.82
73870;BME280;64924;42.140;24.762;2022-12-10T07:58:33;99049.19;;;11.09;64.42
73870;BME280;64924;42.140;24.762;2022-12-10T08:00:59;99060.63;;;11.24;63.96
73870;BME280;64924;42.140;24.762;2022-12-10T08:03:30;99067.72;;;11.32;63.78
73870;BME280;64924;42.140;24.762;2022-12-10T08:06:14;99082.09;;;11.46;63.37
73870;BME280;64924;42.140;24.762;2022-12-10T08:08:41;99064.56;;;11.35;63.93
73870;BME280;64924;42.140;24.762;2022-12-10T08:11:07;99056.41;;;11.28;64.12
73870;BME280;64924;42.140;24.762;2022-12-10T08:13:34;99056.47;;;11.15;64.40
73870;BME280;64924;42.140;24.762;2022-12-10T08:16:08;99048.31;;;11.15;64.62
73870;BME280;64924;42.140;24.762;2022-12-10T08:18:35;99055.41;;;11.16;64.65
73870;BME280;64924;42.140;24.762;2022-12-10T08:21:05;99059.78;;;11.24;64.55
73870;BME280;64924;42.140;24.762;2022-12-10T08:23:31;99052.25;;;11.19;64.36
73870;BME280;64924;42.140;24.762;2022-12-10T08:25:57;99059.34;;;11.27;64.30
73870;BME280;64924;42.140;24.762;2022-12-10T08:28:22;99060.22;;;11.21;64.48
73870;BME280;64924;42.140;24.762;2022-12-10T08:30:48;99042.63;;;11.23;63.87
73870;BME280;64924;42.140;24.762;2022-12-10T08:33:14;99011.53;;;11.13;64.16
73870;BME280;64924;42.140;24.762;2022-12-10T08:35:40;99036.31;;;11.36;63.87
73870;BME280;64924;42.140;24.762;2022-12-10T08:38:05;99020.63;;;11.38;63.97
73870;BME280;64924;42.140;24.762;2022-12-10T08:40:31;99012.63;;;11.50;63.56
73870;BME280;64924;42.140;24.762;2022-12-10T08:42:56;99011.31;;;11.52;63.49
73870;BME280;64924;42.140;24.762;2022-12-10T08:45:22;99011.72;;;11.56;63.43
73870;BME280;64924;42.140;24.762;2022-12-10T08:47:47;98999.44;;;11.47;63.11
73870;BME280;64924;42.140;24.762;2022-12-10T08:50:13;99021.69;;;11.68;62.89
73870;BME280;64924;42.140;24.762;2022-12-10T08:52:38;99015.38;;;11.75;62.51
73870;BME280;64924;42.140;24.762;2022-12-10T08:55:04;99011.16;;;11.85;62.39
73870;BME280;64924;42.140;24.762;2022-12-10T08:57:30;99009.19;;;11.92;62.61
73870;BME280;64924;42.140;24.762;2022-12-10T08:59:55;99021.19;;;12.16;61.98
73870;BME280;64924;42.140;24.762;2022-12-10T09:02:21;98997.06;;;12.20;62.02
73870;BME280;64924;42.140;24.762;2022-12-10T09:04:46;99008.66;;;12.33;61.92
73870;BME280;64924;42.140;24.762;2022-12-10T09:07:14;99006.31;;;12.37;61.28
73870;BME280;64924;42.140;24.762;2022-12-10T09:09:39;98964.06;;;12.28;61.24
73870;BME280;64924;42.140;24.762;2022-12-10T09:12:05;98966.75;;;12.34;61.19
73870;BME280;64924;42.140;24.762;2022-12-10T09:14:30;98968.91;;;12.51;61.26
73870;BME280;64924;42.140;24.762;2022-12-10T09:16:57;98954.06;;;12.47;61.08
73870;BME280;64924;42.140;24.762;2022-12-10T09:19:22;98965.28;;;12.75;60.63
73870;BME280;64924;42.140;24.762;2022-12-10T09:21:48;98954.59;;;12.73;60.75
73870;BME280;64924;42.140;24.762;2022-12-10T09:24:13;98959.59;;;12.77;60.60
73870;BME280;64924;42.140;24.762;2022-12-10T09:26:39;98901.16;;;12.54;60.02
73870;BME280;64924;42.140;24.762;2022-12-10T09:29:04;98946.00;;;13.06;59.33
73870;BME280;64924;42.140;24.762;2022-12-10T09:31:30;98940.47;;;13.31;58.62
73870;BME280;64924;42.140;24.762;2022-12-10T09:33:55;98910.16;;;13.51;57.24
73870;BME280;64924;42.140;24.762;2022-12-10T09:36:21;98926.28;;;14.06;56.04
73870;BME280;64924;42.140;24.762;2022-12-10T09:38:47;98925.34;;;14.35;55.23
73870;BME280;64924;42.140;24.762;2022-12-10T09:47:11;98883.03;;;14.38;54.65
73870;BME280;64924;42.140;24.762;2022-12-10T09:52:23;98931.41;;;14.26;55.40
73870;BME280;64924;42.140;24.762;2022-12-10T09:54:58;98903.00;;;14.27;55.23
73870;BME280;64924;42.140;24.762;2022-12-10T09:57:45;98897.91;;;14.07;55.28
73870;BME280;64924;42.140;24.762;2022-12-10T10:00:22;98890.41;;;13.91;56.57
73870;BME280;64924;42.140;24.762;2022-12-10T10:02:49;98887.91;;;13.89;56.07
73870;BME280;64924;42.140;24.762;2022-12-10T10:05:24;98883.88;;;13.92;56.44
73870;BME280;64924;42.140;24.762;2022-12-10T10:07:53;98849.56;;;13.73;56.98
73870;BME280;64924;42.140;24.762;2022-12-10T10:10:25;98880.81;;;14.00;56.42
73870;BME280;64924;42.140;24.762;2022-12-10T10:12:57;98860.81;;;13.76;56.83
73870;BME280;64924;42.140;24.762;2022-12-10T10:15:30;98833.50;;;13.53;56.65
73870;BME280;64924;42.140;24.762;2022-12-10T10:17:59;98874.13;;;13.61;57.26
73870;BME280;64924;42.140;24.762;2022-12-10T10:20:27;98855.72;;;13.56;57.36
73870;BME280;64924;42.140;24.762;2022-12-10T10:22:55;98854.88;;;13.56;57.78
73870;BME280;64924;42.140;24.762;2022-12-10T10:25:21;98832.97;;;13.21;57.92
73870;BME280;64924;42.140;24.762;2022-12-10T10:27:47;98872.56;;;13.53;57.68
73870;BME280;64924;42.140;24.762;2022-12-10T10:30:18;98855.72;;;13.56;57.90
73870;BME280;64924;42.140;24.762;2022-12-10T10:32:51;98826.25;;;13.47;57.30
73870;BME280;64924;42.140;24.762;2022-12-10T10:35:34;98834.84;;;13.62;57.55
73870;BME280;64924;42.140;24.762;2022-12-10T10:38:17;98808.38;;;13.62;57.66
73870;BME280;64924;42.140;24.762;2022-12-10T10:40:48;98838.28;;;13.81;57.69
73870;BME280;64924;42.140;24.762;2022-12-10T10:43:28;98823.94;;;13.74;56.86
73870;BME280;64924;42.140;24.762;2022-12-10T10:46:05;98835.19;;;13.77;57.15
73870;BME280;64924;42.140;24.762;2022-12-10T10:48:32;98826.06;;;13.71;57.18
73870;BME280;64924;42.140;24.762;2022-12-10T10:51:27;98828.44;;;13.68;57.41
73870;BME280;64924;42.140;24.762;2022-12-10T10:53:54;98794.13;;;13.49;57.73
73870;BME280;64924;42.140;24.762;2022-12-10T10:56:28;98780.13;;;13.33;57.63
73870;BME280;64924;42.140;24.762;2022-12-10T10:59:28;98808.97;;;13.53;58.20
73870;BME280;64924;42.140;24.762;2022-12-10T11:04:47;98818.09;;;13.35;58.38
73870;BME280;64924;42.140;24.762;2022-12-10T11:09:52;98795.75;;;13.26;58.35
73870;BME280;64924;42.140;24.762;2022-12-10T11:12:37;98805.03;;;13.49;58.08
73870;BME280;64924;42.140;24.762;2022-12-10T11:17:50;98789.03;;;13.11;58.85
73870;BME280;64924;42.140;24.762;2022-12-10T11:20:19;98791.78;;;13.11;59.32
73870;BME280;64924;42.140;24.762;2022-12-10T11:23:09;98789.38;;;13.32;58.78
73870;BME280;64924;42.140;24.762;2022-12-10T11:42:51;98753.06;;;13.44;58.56
73870;BME280;64924;42.140;24.762;2022-12-10T11:50:47;98723.63;;;13.46;59.10
73870;BME280;64924;42.140;24.762;2022-12-10T11:56:24;98724.34;;;13.64;58.64
73870;BME280;64924;42.140;24.762;2022-12-10T12:04:43;98711.69;;;13.35;59.67
73870;BME280;64924;42.140;24.762;2022-12-10T12:13:06;98701.81;;;13.22;60.09
73870;BME280;64924;42.140;24.762;2022-12-10T12:15:35;98674.16;;;13.07;60.24
73870;BME280;64924;42.140;24.762;2022-12-10T12:18:55;98699.44;;;13.37;60.05
73870;BME280;64924;42.140;24.762;2022-12-10T12:21:01;98682.59;;;13.17;60.52
73870;BME280;64924;42.140;24.762;2022-12-10T12:23:33;98675.94;;;13.13;60.75
73870;BME280;64924;42.140;24.762;2022-12-10T12:26:12;98676.31;;;13.17;61.09
73870;BME280;64924;42.140;24.762;2022-12-10T12:28:47;98681.06;;;13.21;61.07
73870;BME280;64924;42.140;24.762;2022-12-10T12:31:18;98647.94;;;13.06;60.99
73870;BME280;64924;42.140;24.762;2022-12-10T12:33:59;98689.25;;;13.45;60.29
73870;BME280;64924;42.140;24.762;2022-12-10T12:36:31;98674.88;;;13.49;60.32
73870;BME280;64924;42.140;24.762;2022-12-10T12:41:43;98675.25;;;13.53;59.93
73870;BME280;64924;42.140;24.762;2022-12-10T12:46:46;98678.44;;;13.38;60.75
73870;BME280;64924;42.140;24.762;2022-12-10T12:49:32;98621.78;;;13.17;61.05
73870;BME280;64924;42.140;24.762;2022-12-10T12:54:56;98664.13;;;13.31;61.12
73870;BME280;64924;42.140;24.762;2022-12-10T12:57:33;98642.06;;;13.32;61.22
73870;BME280;64924;42.140;24.762;2022-12-10T13:00:08;98687.94;;;13.59;61.13
73870;BME280;64924;42.140;24.762;2022-12-10T13:05:23;98681.63;;;13.58;60.69
73870;BME280;64924;42.140;24.762;2022-12-10T13:13:38;98668.94;;;13.52;61.06
73870;BME280;64924;42.140;24.762;2022-12-10T13:16:35;98659.50;;;13.31;61.89
73870;BME280;64924;42.140;24.762;2022-12-10T13:34:44;98624.34;;;12.77;62.76
73870;BME280;64924;42.140;24.762;2022-12-10T13:39:48;98607.97;;;12.77;63.45
73870;BME280;64924;42.140;24.762;2022-12-10T13:47:50;98593.16;;;12.72;63.95
73870;BME280;64924;42.140;24.762;2022-12-10T13:50:35;98634.69;;;12.98;63.36
73870;BME280;64924;42.140;24.762;2022-12-10T14:07:14;98610.13;;;12.86;64.23
73870;BME280;64924;42.140;24.762;2022-12-10T14:09:53;98624.09;;;12.78;64.22
73870;BME280;64924;42.140;24.762;2022-12-10T14:12:26;98576.91;;;12.66;64.19
73870;BME280;64924;42.140;24.762;2022-12-10T14:15:00;98599.34;;;12.80;64.69
73870;BME280;64924;42.140;24.762;2022-12-10T14:17:41;98567.00;;;12.60;64.48
73870;BME280;64924;42.140;24.762;2022-12-10T14:20:14;98525.97;;;12.31;64.87
73870;BME280;64924;42.140;24.762;2022-12-10T14:22:47;98600.41;;;12.79;64.68
73870;BME280;64924;42.140;24.762;2022-12-10T14:25:15;98583.09;;;12.73;65.13
73870;BME280;64924;42.140;24.762;2022-12-10T14:27:43;98580.25;;;12.56;65.78
73870;BME280;64924;42.140;24.762;2022-12-10T14:30:21;98554.75;;;12.39;65.64
73870;BME280;64924;42.140;24.762;2022-12-10T14:32:49;98582.00;;;12.39;66.11
73870;BME280;64924;42.140;24.762;2022-12-10T14:35:18;98580.31;;;12.38;66.41
73870;BME280;64924;42.140;24.762;2022-12-10T14:37:46;98551.41;;;12.14;66.28
73870;BME280;64924;42.140;24.762;2022-12-10T14:40:28;98546.69;;;12.21;66.39
73870;BME280;64924;42.140;24.762;2022-12-10T14:43:03;98559.25;;;12.22;66.82
73870;BME280;64924;42.140;24.762;2022-12-10T14:45:38;98570.13;;;12.22;66.90
73870;BME280;64924;42.140;24.762;2022-12-10T14:48:08;98585.50;;;12.28;66.65
73870;BME280;64924;42.140;24.762;2022-12-10T14:50:37;98570.50;;;12.37;66.46
73870;BME280;64924;42.140;24.762;2022-12-10T14:53:08;98565.75;;;12.32;66.72
73870;BME280;64924;42.140;24.762;2022-12-10T14:55:37;98578.06;;;12.23;67.22
73870;BME280;64924;42.140;24.762;2022-12-10T14:58:03;98567.72;;;12.14;67.22
73870;BME280;64924;42.140;24.762;2022-12-10T15:00:30;98564.31;;;12.18;67.37
73870;BME280;64924;42.140;24.762;2022-12-10T15:03:06;98551.41;;;12.14;67.04
73870;BME280;64924;42.140;24.762;2022-12-10T15:05:33;98562.75;;;12.11;67.41
73870;BME280;64924;42.140;24.762;2022-12-10T15:08:05;98563.13;;;12.14;67.66